Time;durP1;ratioP1;P1;durP2;ratioP2;P2;SDS_P1;SDS_P2;PMS_P1;PMS_P2;Temp;Humidity;BMP_temperature;BMP_pressure;BME280_temperature;BME280_humidity;BME280_pressure;Samples;Min_cycle;Max_cycle;Signal;HPM_P1;HPM_P2
2021/06/18 00:00:47;;;;;;;5.53;2.70;;;20.40;71.90;;;;;;5027969;28;20021;-68
2021/06/18 00:03:13;;;;;;;5.40;2.55;;;20.40;72.00;;;;;;5029439;28;20033;-70
2021/06/18 00:05:39;;;;;;;8.23;2.53;;;20.40;72.00;;;;;;5029254;28;20029;-69
2021/06/18 00:08:05;;;;;;;6.38;2.70;;;20.40;72.10;;;;;;5029262;28;20121;-68
2021/06/18 00:10:31;;;;;;;8.98;2.33;;;20.30;72.60;;;;;;5029169;28;20030;-68
2021/06/18 00:12:56;;;;;;;7.22;2.80;;;20.20;73.00;;;;;;5029132;28;20044;-69
2021/06/18 00:15:23;;;;;;;8.57;2.58;;;20.20;73.10;;;;;;5028982;28;20057;-68
2021/06/18 00:17:50;;;;;;;4.75;2.83;;;20.20;73.20;;;;;;5027899;28;20030;-68
2021/06/18 00:20:16;;;;;;;10.35;2.47;;;20.20;73.30;;;;;;5029301;28;20031;-69
2021/06/18 00:22:43;;;;;;;3.92;2.20;;;20.20;73.50;;;;;;5027761;28;20060;-70
2021/06/18 00:25:10;;;;;;;6.93;2.50;;;20.10;73.60;;;;;;5029007;28;20018;-69
2021/06/18 00:27:36;;;;;;;5.38;2.85;;;20.10;73.80;;;;;;5028696;28;20056;-70
2021/06/18 00:30:04;;;;;;;7.13;2.30;;;20.10;74.10;;;;;;5028894;28;20104;-68
2021/06/18 00:32:30;;;;;;;6.05;2.75;;;20.10;74.40;;;;;;5028710;28;20029;-69
2021/06/18 00:34:55;;;;;;;4.32;2.72;;;20.00;74.60;;;;;;5028804;28;20040;-70
2021/06/18 00:37:21;;;;;;;12.82;2.50;;;20.00;75.00;;;;;;5028369;28;20407;-69
2021/06/18 00:39:47;;;;;;;5.70;2.65;;;20.00;75.00;;;;;;5028789;28;20033;-69
2021/06/18 00:42:13;;;;;;;5.65;2.80;;;20.00;74.90;;;;;;5027425;28;20049;-69
2021/06/18 00:44:39;;;;;;;4.32;2.58;;;19.90;74.80;;;;;;5028476;28;20068;-69
2021/06/18 00:47:09;;;;;;;6.60;2.63;;;19.90;75.00;;;;;;5028751;28;20028;-68
2021/06/18 00:49:35;;;;;;;4.00;2.25;;;19.90;75.30;;;;;;5028563;28;20040;-69
2021/06/18 00:52:01;;;;;;;15.27;3.13;;;19.90;75.50;;;;;;5028503;28;20029;-68
2021/06/18 00:54:28;;;;;;;11.55;2.45;;;19.80;75.60;;;;;;5027232;28;20033;-70
2021/06/18 00:57:00;;;;;;;13.43;2.97;;;19.80;75.90;;;;;;5028012;28;20040;-70
2021/06/18 00:59:27;;;;;;;3.63;2.33;;;19.70;75.90;;;;;;5028292;28;20869;-69
2021/06/18 01:01:53;;;;;;;4.75;2.60;;;19.70;76.00;;;;;;5028537;28;20079;-70
2021/06/18 01:04:22;;;;;;;4.38;2.90;;;19.70;76.10;;;;;;5028603;28;20116;-70
2021/06/18 01:06:57;;;;;;;6.00;2.60;;;19.70;76.50;;;;;;5028243;28;20053;-69
2021/06/18 01:09:23;;;;;;;5.05;2.42;;;19.70;76.70;;;;;;5028232;28;20037;-69
2021/06/18 01:11:59;;;;;;;4.43;3.03;;;19.70;77.00;;;;;;5028395;28;20030;-69
2021/06/18 01:14:43;;;;;;;4.22;2.60;;;19.60;77.10;;;;;;5028359;28;20033;-69
2021/06/18 01:17:35;;;;;;;6.57;2.35;;;19.60;77.50;;;;;;5028254;28;20034;-68
2021/06/18 01:20:28;;;;;;;5.70;2.08;;;19.60;77.60;;;;;;5019767;28;20076;-69
2021/06/18 01:22:56;;;;;;;4.95;2.45;;;19.50;77.80;;;;;;5028402;28;20273;-69
2021/06/18 01:25:21;;;;;;;7.45;2.45;;;19.50;77.60;;;;;;5028101;28;20028;-69
2021/06/18 01:28:03;;;;;;;4.43;2.83;;;19.40;77.60;;;;;;5028152;28;20033;-69
2021/06/18 01:30:30;;;;;;;5.75;3.28;;;19.40;77.60;;;;;;5028190;28;20025;-69
2021/06/18 01:33:13;;;;;;;5.57;2.88;;;19.40;77.60;;;;;;5028196;28;20044;-69
2021/06/18 01:35:44;;;;;;;5.47;2.88;;;19.40;77.50;;;;;;5028228;28;20025;-69
2021/06/18 01:38:11;;;;;;;9.93;3.03;;;19.40;77.50;;;;;;5027803;28;20061;-69
2021/06/18 01:40:39;;;;;;;6.57;3.10;;;19.40;77.30;;;;;;5028032;28;20425;-69
2021/06/18 01:43:08;;;;;;;3.75;2.97;;;19.40;77.30;;;;;;5028251;28;20032;-69
2021/06/18 01:45:35;;;;;;;6.88;3.47;;;19.40;77.30;;;;;;5027889;28;20474;-69
2021/06/18 01:48:04;;;;;;;5.65;2.80;;;19.30;77.30;;;;;;5028037;28;20048;-69
2021/06/18 01:50:31;;;;;;;5.68;3.33;;;19.40;77.30;;;;;;5027919;28;20030;-69
2021/06/18 01:53:05;;;;;;;7.57;3.83;;;19.30;77.30;;;;;;5027899;28;20076;-68
2021/06/18 01:55:32;;;;;;;5.95;3.20;;;19.30;77.70;;;;;;5027927;28;20045;-70
2021/06/18 01:58:01;;;;;;;6.95;2.90;;;19.30;77.60;;;;;;5027861;28;20021;-69
2021/06/18 02:00:29;;;;;;;4.22;3.00;;;19.40;77.60;;;;;;5027990;28;20109;-69
2021/06/18 02:02:58;;;;;;;10.38;4.00;;;19.40;77.60;;;;;;5027956;28;20044;-69
2021/06/18 02:05:24;;;;;;;6.38;3.30;;;19.40;77.50;;;;;;5027699;28;20018;-70
2021/06/18 02:07:53;;;;;;;9.50;3.20;;;19.40;77.60;;;;;;5030201;28;20036;-70
2021/06/18 02:10:19;;;;;;;5.97;3.20;;;19.40;77.80;;;;;;5030200;28;20026;-67
2021/06/18 02:12:47;;;;;;;5.43;2.70;;;19.30;77.60;;;;;;5031307;28;20037;-69
2021/06/18 02:15:14;;;;;;;8.05;3.00;;;19.30;78.20;;;;;;5031269;28;20040;-68
2021/06/18 02:17:41;;;;;;;5.95;2.63;;;19.30;78.60;;;;;;5031077;28;20079;-68
2021/06/18 02:20:09;;;;;;;4.20;2.63;;;19.20;78.90;;;;;;5031110;28;20300;-69
2021/06/18 02:22:38;;;;;;;5.90;2.83;;;19.20;79.20;;;;;;5031171;28;20032;-68
2021/06/18 02:25:05;;;;;;;6.03;3.05;;;19.10;79.50;;;;;;5031313;28;20545;-69
2021/06/18 02:27:32;;;;;;;12.05;3.17;;;19.00;79.90;;;;;;5030836;28;20580;-68
2021/06/18 02:29:58;;;;;;;6.68;2.95;;;19.00;80.30;;;;;;5031105;28;20025;-67
2021/06/18 02:32:25;;;;;;;5.80;3.03;;;18.90;80.90;;;;;;5031029;28;20552;-69
2021/06/18 02:34:50;;;;;;;4.47;2.83;;;18.80;81.10;;;;;;5030926;28;20064;-69
2021/06/18 02:37:17;;;;;;;8.32;3.15;;;18.80;81.50;;;;;;5030562;28;20057;-68
2021/06/18 02:39:43;;;;;;;5.45;2.67;;;18.70;81.70;;;;;;5030956;28;20116;-69
2021/06/18 02:42:10;;;;;;;5.30;3.15;;;18.70;82.10;;;;;;5030836;28;20212;-70
2021/06/18 02:44:39;;;;;;;8.02;3.25;;;18.60;82.50;;;;;;5030567;28;20125;-69
2021/06/18 02:47:18;;;;;;;5.05;2.72;;;18.60;82.60;;;;;;5030650;28;20030;-69
2021/06/18 02:50:00;;;;;;;6.32;2.70;;;18.70;82.80;;;;;;5030536;28;20079;-68
2021/06/18 02:52:27;;;;;;;6.90;2.55;;;18.70;82.90;;;;;;5030596;28;20025;-69
2021/06/18 02:55:01;;;;;;;7.13;2.13;;;18.80;82.70;;;;;;5030690;28;20088;-67
2021/06/18 02:57:33;;;;;;;4.53;2.38;;;18.90;82.70;;;;;;5030122;28;20410;-69
2021/06/18 03:00:09;;;;;;;7.25;2.60;;;18.90;82.60;;;;;;5030547;28;20029;-69
2021/06/18 03:03:03;;;;;;;7.10;2.60;;;19.00;82.50;;;;;;5030503;28;20037;-69
2021/06/18 03:05:30;;;;;;;8.80;3.45;;;19.00;82.50;;;;;;5030255;28;20033;-69
2021/06/18 03:08:03;;;;;;;5.57;2.75;;;19.00;82.70;;;;;;5030132;28;20033;-68
2021/06/18 03:10:40;;;;;;;9.70;2.50;;;18.90;82.70;;;;;;5030170;28;20030;-69
2021/06/18 03:13:19;;;;;;;5.05;2.60;;;18.90;82.80;;;;;;5029299;28;20087;-68
2021/06/18 03:15:46;;;;;;;5.05;2.97;;;19.00;82.30;;;;;;5029391;28;20047;-69
2021/06/18 03:18:14;;;;;;;7.60;3.10;;;19.10;82.10;;;;;;5028758;28;20029;-68
2021/06/18 03:20:42;;;;;;;10.55;2.70;;;19.20;81.70;;;;;;5028557;28;20725;-68
2021/06/18 03:23:12;;;;;;;7.05;2.92;;;19.20;81.70;;;;;;5029938;28;20061;-67
2021/06/18 03:25:40;;;;;;;6.65;2.95;;;19.20;81.60;;;;;;5029862;28;20382;-68
2021/06/18 03:28:07;;;;;;;6.25;3.25;;;19.10;81.70;;;;;;5029907;28;20036;-67
2021/06/18 03:30:34;;;;;;;8.57;2.90;;;19.10;81.90;;;;;;5029717;28;20025;-68
2021/06/18 03:33:02;;;;;;;5.95;3.25;;;19.10;82.00;;;;;;5029696;28;20029;-68
2021/06/18 03:35:29;;;;;;;6.72;2.92;;;19.10;82.00;;;;;;5029620;28;20025;-69
2021/06/18 03:37:55;;;;;;;6.70;3.00;;;19.20;81.90;;;;;;5029545;28;20449;-68
2021/06/18 03:40:23;;;;;;;7.00;3.30;;;19.20;82.10;;;;;;5028398;28;20036;-68
2021/06/18 03:42:51;;;;;;;5.75;3.30;;;19.20;82.10;;;;;;5028295;28;20499;-69
2021/06/18 03:45:18;;;;;;;6.18;3.30;;;19.30;82.10;;;;;;5029210;28;20505;-69
2021/06/18 03:47:45;;;;;;;8.82;3.38;;;19.30;81.90;;;;;;5029733;28;20525;-70
2021/06/18 03:50:13;;;;;;;9.40;4.13;;;19.40;81.90;;;;;;5029481;28;20059;-69
2021/06/18 03:52:39;;;;;;;7.63;3.13;;;19.50;81.90;;;;;;5029541;28;20040;-69
2021/06/18 03:55:07;;;;;;;6.70;3.42;;;19.60;81.90;;;;;;5028354;28;20044;-70
2021/06/18 03:57:35;;;;;;;10.07;3.50;;;19.60;81.90;;;;;;5029424;28;20045;-69
2021/06/18 04:00:03;;;;;;;6.05;2.85;;;19.90;81.30;;;;;;5029164;28;20040;-68
2021/06/18 04:02:30;;;;;;;4.90;3.15;;;20.20;81.20;;;;;;5029175;28;20049;-71
2021/06/18 04:04:57;;;;;;;5.72;3.38;;;20.50;80.00;;;;;;5029298;28;20525;-69
2021/06/18 04:07:23;;;;;;;6.30;3.15;;;20.80;79.50;;;;;;5027953;28;20037;-70
2021/06/18 04:09:50;;;;;;;8.52;3.33;;;21.20;77.60;;;;;;5029149;28;20601;-70
2021/06/18 04:12:17;;;;;;;12.30;3.60;;;21.50;76.70;;;;;;5028988;28;20036;-68
2021/06/18 04:14:43;;;;;;;7.13;3.65;;;21.80;75.30;;;;;;5028799;28;20048;-70
2021/06/18 04:17:10;;;;;;;12.00;3.25;;;22.00;74.60;;;;;;5028955;28;20068;-69
2021/06/18 04:19:37;;;;;;;15.93;3.20;;;22.20;74.00;;;;;;5027480;28;20565;-69
2021/06/18 04:22:05;;;;;;;7.60;2.83;;;22.40;73.20;;;;;;5028878;28;20485;-70
2021/06/18 04:24:31;;;;;;;5.90;3.20;;;22.60;73.00;;;;;;5028900;28;20032;-69
2021/06/18 04:26:57;;;;;;;7.70;3.35;;;22.80;72.30;;;;;;5027381;28;20370;-70
2021/06/18 04:29:23;;;;;;;8.52;2.83;;;22.90;72.30;;;;;;5028496;28;20033;-70
2021/06/18 04:31:49;;;;;;;10.15;3.05;;;23.10;71.80;;;;;;5028634;28;20044;-69
2021/06/18 04:34:15;;;;;;;9.32;3.50;;;23.20;71.30;;;;;;5028756;28;20113;-70
2021/06/18 04:36:41;;;;;;;12.30;3.42;;;23.40;70.60;;;;;;5028636;28;20037;-70
2021/06/18 04:39:08;;;;;;;4.50;3.25;;;23.60;70.20;;;;;;5028687;28;20509;-69
2021/06/18 04:41:35;;;;;;;8.27;3.47;;;23.80;69.30;;;;;;5028464;28;20498;-70
2021/06/18 04:44:02;;;;;;;4.97;3.85;;;24.00;67.30;;;;;;5028561;28;20036;-69
2021/06/18 04:46:27;;;;;;;11.18;3.35;;;24.10;66.60;;;;;;5028574;28;20067;-70
2021/06/18 04:48:53;;;;;;;10.10;3.95;;;24.30;67.00;;;;;;5028580;28;20498;-70
2021/06/18 04:51:19;;;;;;;7.45;4.03;;;24.30;66.60;;;;;;5028279;28;20029;-69
2021/06/18 04:53:46;;;;;;;5.53;3.40;;;24.40;66.70;;;;;;5028657;28;20506;-70
2021/06/18 04:56:12;;;;;;;8.02;3.53;;;24.40;66.70;;;;;;5028398;28;20025;-69
2021/06/18 04:58:38;;;;;;;9.07;3.67;;;24.50;66.10;;;;;;5028372;28;20025;-70
2021/06/18 05:01:05;;;;;;;4.45;3.42;;;24.60;65.50;;;;;;5028465;28;20029;-69
2021/06/18 05:03:30;;;;;;;6.10;3.78;;;24.70;64.80;;;;;;5028218;28;20052;-69
2021/06/18 05:05:56;;;;;;;9.80;3.15;;;24.70;65.10;;;;;;5027038;28;20486;-70
2021/06/18 05:08:22;;;;;;;12.50;4.18;;;24.90;64.30;;;;;;5028680;28;20053;-68
2021/06/18 05:10:47;;;;;;;5.25;3.75;;;24.90;64.00;;;;;;5028099;28;20368;-69
2021/06/18 05:13:13;;;;;;;8.18;4.18;;;25.00;64.60;;;;;;5028219;28;20134;-69
2021/06/18 05:15:39;;;;;;;6.45;3.47;;;25.10;64.00;;;;;;5026842;28;20026;-69
2021/06/18 05:18:05;;;;;;;5.63;3.80;;;25.30;62.80;;;;;;5028164;28;20033;-69
2021/06/18 05:20:30;;;;;;;6.75;3.47;;;25.40;62.30;;;;;;5028312;28;20030;-69
2021/06/18 05:22:56;;;;;;;8.95;4.03;;;25.50;62.80;;;;;;5028388;28;20041;-69
2021/06/18 05:25:22;;;;;;;13.10;4.00;;;25.70;62.80;;;;;;5028071;28;20026;-68
2021/06/18 05:27:48;;;;;;;4.95;3.95;;;25.70;61.50;;;;;;5028079;28;20036;-68
2021/06/18 05:30:15;;;;;;;5.38;2.90;;;25.80;60.60;;;;;;5028278;28;20072;-68
2021/06/18 05:32:41;;;;;;;6.18;3.58;;;25.70;61.20;;;;;;5028015;28;20108;-69
2021/06/18 05:35:07;;;;;;;12.30;2.85;;;25.90;61.00;;;;;;5026883;28;20188;-68
2021/06/18 05:37:33;;;;;;;9.52;4.03;;;25.90;59.60;;;;;;5027773;28;20044;-69
2021/06/18 05:39:59;;;;;;;6.05;3.13;;;26.00;59.50;;;;;;5027946;28;20037;-68
2021/06/18 05:42:25;;;;;;;10.65;3.40;;;26.30;59.10;;;;;;5030088;28;20028;-69
2021/06/18 05:44:50;;;;;;;9.80;3.83;;;26.50;59.00;;;;;;5031852;28;20025;-68
2021/06/18 05:47:16;;;;;;;12.27;3.63;;;27.10;57.80;;;;;;5030206;28;20079;-69
2021/06/18 05:49:42;;;;;;;4.47;2.90;;;28.00;56.30;;;;;;5030545;28;20022;-69
2021/06/18 05:52:07;;;;;;;6.15;3.13;;;28.60;55.30;;;;;;5031741;28;20160;-69
2021/06/18 05:54:33;;;;;;;11.95;3.42;;;29.30;51.80;;;;;;5030312;28;20041;-70
2021/06/18 05:56:59;;;;;;;17.48;3.95;;;30.10;49.10;;;;;;5031637;28;20444;-71
2021/06/18 05:59:24;;;;;;;8.35;2.72;;;31.50;46.00;;;;;;5031413;28;20116;-72
2021/06/18 06:01:50;;;;;;;5.03;3.20;;;32.90;42.20;;;;;;5031313;28;20068;-71
2021/06/18 06:04:15;;;;;;;6.28;2.63;;;34.00;39.90;;;;;;5031500;28;20040;-70
2021/06/18 06:06:41;;;;;;;3.33;2.15;;;34.80;37.40;;;;;;5031354;28;20030;-71
2021/06/18 06:09:07;;;;;;;9.05;3.13;;;35.50;36.00;;;;;;5031335;28;20026;-71
2021/06/18 06:11:34;;;;;;;7.30;2.97;;;36.60;33.90;;;;;;5029968;28;20033;-71
2021/06/18 06:14:01;;;;;;;6.22;2.75;;;37.00;32.40;;;;;;5031148;28;20041;-70
2021/06/18 06:16:29;;;;;;;11.65;2.72;;;37.30;31.10;;;;;;5031171;28;20133;-71
2021/06/18 06:18:54;;;;;;;6.05;3.00;;;37.50;29.80;;;;;;5031226;28;20104;-70
2021/06/18 06:21:20;;;;;;;7.80;2.75;;;37.50;29.80;;;;;;5031042;28;20117;-71
2021/06/18 06:23:47;;;;;;;9.93;2.63;;;37.70;30.00;;;;;;5031099;28;20096;-71
2021/06/18 06:26:14;;;;;;;7.35;3.20;;;38.20;30.00;;;;;;5031131;28;20534;-71
2021/06/18 06:28:39;;;;;;;5.80;2.28;;;38.20;29.10;;;;;;5030967;28;20113;-71
2021/06/18 06:31:06;;;;;;;7.80;2.78;;;38.10;29.00;;;;;;5031052;28;20112;-71
2021/06/18 06:33:32;;;;;;;8.40;3.20;;;38.30;29.00;;;;;;5030532;28;20049;-70
2021/06/18 06:35:57;;;;;;;5.70;2.90;;;38.30;28.90;;;;;;5030842;28;20029;-70
2021/06/18 06:38:23;;;;;;;8.32;3.17;;;38.20;28.90;;;;;;5030719;28;20053;-71
2021/06/18 06:40:50;;;;;;;7.45;3.33;;;37.70;29.50;;;;;;5030675;28;20108;-70
2021/06/18 06:43:16;;;;;;;8.00;3.13;;;37.80;29.30;;;;;;5030931;28;20057;-70
2021/06/18 06:45:42;;;;;;;5.45;3.45;;;37.60;29.50;;;;;;5030740;28;20103;-70
2021/06/18 06:48:08;;;;;;;7.22;2.97;;;37.60;29.90;;;;;;5030566;28;20487;-71
2021/06/18 06:50:34;;;;;;;7.75;2.83;;;37.80;29.50;;;;;;5029200;28;20433;-69
2021/06/18 06:53:00;;;;;;;7.18;3.53;;;37.80;29.40;;;;;;5029648;28;20099;-70
2021/06/18 06:55:25;;;;;;;10.70;3.40;;;37.50;29.60;;;;;;5030339;28;20049;-70
2021/06/18 06:57:51;;;;;;;8.68;3.45;;;37.30;30.20;;;;;;5030396;28;20029;-70
2021/06/18 07:00:18;;;;;;;6.32;3.22;;;37.40;29.90;;;;;;5030322;28;20026;-69
2021/06/18 07:02:44;;;;;;;5.47;3.35;;;37.20;29.60;;;;;;5030233;28;20521;-69
2021/06/18 07:05:10;;;;;;;10.70;3.22;;;37.20;29.70;;;;;;5030284;28;20026;-70
2021/06/18 07:07:37;;;;;;;4.85;2.97;;;37.60;29.90;;;;;;5030165;28;20234;-71
2021/06/18 07:10:04;;;;;;;8.85;3.00;;;37.40;29.70;;;;;;5030129;28;20021;-71
2021/06/18 07:12:30;;;;;;;6.30;2.80;;;37.20;30.20;;;;;;5030229;28;20032;-70
2021/06/18 07:14:56;;;;;;;4.05;3.10;;;37.00;30.20;;;;;;5028960;28;20029;-71
2021/06/18 07:17:22;;;;;;;13.15;2.75;;;37.20;29.80;;;;;;5029950;28;20025;-70
2021/06/18 07:19:49;;;;;;;9.98;3.25;;;37.00;29.90;;;;;;5029951;28;20053;-70
2021/06/18 07:22:18;;;;;;;10.45;2.88;;;37.00;30.20;;;;;;5028663;28;20041;-71
2021/06/18 07:24:44;;;;;;;5.05;2.90;;;37.00;30.00;;;;;;5030115;28;20027;-71
2021/06/18 07:27:10;;;;;;;10.43;2.95;;;36.80;30.60;;;;;;5029903;28;20340;-71
2021/06/18 07:29:36;;;;;;;6.85;3.35;;;37.00;30.00;;;;;;5029658;28;20022;-70
2021/06/18 07:32:01;;;;;;;7.40;3.28;;;37.10;30.40;;;;;;5029741;28;20035;-70
2021/06/18 07:34:27;;;;;;;13.98;3.47;;;37.10;30.40;;;;;;5029679;28;20124;-71
2021/06/18 07:36:53;;;;;;;8.00;3.22;;;37.10;30.30;;;;;;5029642;28;20119;-71
2021/06/18 07:39:18;;;;;;;9.75;3.25;;;37.20;30.00;;;;;;5029490;28;20030;-70
2021/06/18 07:41:45;;;;;;;11.95;4.25;;;37.50;29.80;;;;;;5029692;28;20026;-71
2021/06/18 07:44:11;;;;;;;9.52;3.17;;;37.50;29.80;;;;;;5029651;28;20650;-70
2021/06/18 07:46:36;;;;;;;11.43;2.85;;;37.40;29.20;;;;;;5029652;28;20038;-71
2021/06/18 07:49:02;;;;;;;6.10;3.10;;;36.80;30.10;;;;;;5029550;28;20029;-70
2021/06/18 07:51:28;;;;;;;7.80;2.92;;;37.00;29.90;;;;;;5029239;28;20026;-71
2021/06/18 07:53:53;;;;;;;10.65;3.55;;;37.00;29.90;;;;;;5029473;28;20045;-69
2021/06/18 07:56:27;;;;;;;5.30;2.85;;;37.00;29.80;;;;;;5029412;28;20045;-71
2021/06/18 07:58:53;;;;;;;9.13;3.55;;;36.80;29.70;;;;;;5029513;28;20514;-71
2021/06/18 08:01:19;;;;;;;11.45;3.42;;;36.90;29.60;;;;;;5029070;28;20025;-72
2021/06/18 08:03:45;;;;;;;8.35;3.45;;;36.90;29.90;;;;;;5029282;28;20035;-71
2021/06/18 08:06:11;;;;;;;5.60;2.88;;;37.10;29.50;;;;;;5028959;28;20117;-70
2021/06/18 08:08:37;;;;;;;8.40;3.17;;;37.10;29.40;;;;;;5029218;28;20440;-70
2021/06/18 08:11:03;;;;;;;8.57;4.03;;;36.90;30.00;;;;;;5029270;28;20017;-70
2021/06/18 08:13:29;;;;;;;6.80;2.83;;;36.70;30.00;;;;;;5027900;28;20049;-70
2021/06/18 08:15:55;;;;;;;10.35;3.65;;;36.30;30.10;;;;;;5029013;28;20036;-70
2021/06/18 08:18:20;;;;;;;5.95;3.05;;;36.40;31.00;;;;;;5029026;28;20037;-71
2021/06/18 08:20:46;;;;;;;7.60;2.88;;;36.20;30.40;;;;;;5027779;28;20414;-71
2021/06/18 08:23:12;;;;;;;14.95;3.60;;;36.40;31.30;;;;;;5028838;28;20087;-71
2021/06/18 08:25:38;;;;;;;9.85;3.72;;;37.00;30.70;;;;;;5028890;28;20026;-70
2021/06/18 08:28:05;;;;;;;9.10;3.28;;;36.90;30.00;;;;;;5028789;28;20026;-71
2021/06/18 08:30:30;;;;;;;9.73;3.00;;;36.50;30.10;;;;;;5028867;28;20036;-71
2021/06/18 08:32:56;;;;;;;7.80;2.88;;;35.80;31.20;;;;;;5028697;28;20026;-69
2021/06/18 08:35:22;;;;;;;9.38;3.42;;;35.60;31.50;;;;;;5028587;28;20044;-70
2021/06/18 08:37:48;;;;;;;10.88;3.35;;;35.80;31.00;;;;;;5028502;28;20619;-70
2021/06/18 08:40:15;;;;;;;5.78;3.00;;;36.00;31.20;;;;;;5028685;28;20021;-71
2021/06/18 08:42:41;;;;;;;11.13;3.75;;;36.50;31.00;;;;;;5028767;28;20036;-70
2021/06/18 08:45:08;;;;;;;6.07;2.67;;;36.70;30.40;;;;;;5028565;28;20034;-71
2021/06/18 08:47:34;;;;;;;4.65;2.95;;;37.00;30.70;;;;;;5028236;28;20598;-70
2021/06/18 08:50:00;;;;;;;9.70;3.00;;;37.20;30.00;;;;;;5028617;28;20033;-70
2021/06/18 08:52:26;;;;;;;7.30;2.95;;;36.70;30.20;;;;;;5028514;28;20025;-70
2021/06/18 08:54:54;;;;;;;5.68;2.85;;;36.60;30.30;;;;;;5028453;28;20395;-70
2021/06/18 08:57:21;;;;;;;7.60;3.72;;;36.40;30.50;;;;;;5028045;28;20041;-69
2021/06/18 08:59:47;;;;;;;5.22;3.30;;;36.10;30.80;;;;;;5027200;28;20029;-70
2021/06/18 09:02:14;;;;;;;8.73;3.25;;;36.00;31.50;;;;;;5028580;28;20029;-70
2021/06/18 09:05:00;;;;;;;7.13;3.55;;;36.30;30.90;;;;;;5028422;28;20025;-71
2021/06/18 09:07:26;;;;;;;4.72;2.80;;;36.40;31.10;;;;;;5026949;28;20112;-70
2021/06/18 09:09:52;;;;;;;13.82;3.78;;;36.10;30.70;;;;;;5028435;28;20116;-71
2021/06/18 09:12:18;;;;;;;7.00;3.58;;;36.10;32.20;;;;;;5028359;28;20060;-70
2021/06/18 09:14:44;;;;;;;8.23;3.45;;;36.00;33.00;;;;;;5028148;28;20397;-71
2021/06/18 09:17:18;;;;;;;5.97;3.72;;;36.10;32.70;;;;;;5029886;28;20124;-70
2021/06/18 09:19:47;;;;;;;4.97;3.55;;;36.00;31.90;;;;;;5032524;28;20044;-70
2021/06/18 09:22:37;;;;;;;6.55;3.47;;;36.20;32.10;;;;;;5032273;28;20037;-70
2021/06/18 09:25:02;;;;;;;6.97;4.25;;;35.90;32.10;;;;;;5029317;28;20136;-70
2021/06/18 09:27:37;;;;;;;8.27;3.30;;;35.70;32.40;;;;;;5032113;28;20112;-71
2021/06/18 09:30:22;;;;;;;9.93;3.90;;;35.90;33.90;;;;;;5032218;28;20029;-72
2021/06/18 09:33:23;;;;;;;8.00;3.78;;;36.00;32.70;;;;;;5032063;28;20029;-70
2021/06/18 09:36:04;;;;;;;8.20;3.60;;;35.90;33.60;;;;;;5031729;28;20025;-70
2021/06/18 09:38:44;;;;;;;7.90;3.10;;;36.30;34.50;;;;;;5030935;28;20045;-69
2021/06/18 09:41:32;;;;;;;12.13;3.35;;;36.60;33.10;;;;;;5031345;28;20031;-69
2021/06/18 09:44:23;;;;;;;9.52;3.38;;;36.40;31.40;;;;;;5031771;28;20557;-69
2021/06/18 09:46:52;;;;;;;10.40;3.75;;;36.30;32.70;;;;;;5031715;28;20468;-69
2021/06/18 09:49:39;;;;;;;5.20;3.10;;;36.40;32.60;;;;;;5031633;28;20022;-70
2021/06/18 09:52:09;;;;;;;8.52;3.10;;;36.10;34.50;;;;;;5031663;28;20087;-69
2021/06/18 09:54:40;;;;;;;12.30;3.03;;;36.30;33.80;;;;;;5031690;28;20080;-70
2021/06/18 09:57:15;;;;;;;6.38;2.92;;;36.50;33.70;;;;;;5030327;28;20025;-70
2021/06/18 09:59:52;;;;;;;8.27;3.03;;;35.80;33.00;;;;;;5031491;28;20065;-71
2021/06/18 10:02:19;;;;;;;9.23;2.97;;;35.70;33.50;;;;;;5031537;28;20048;-70
2021/06/18 10:04:48;;;;;;;7.43;2.45;;;35.30;31.60;;;;;;5031503;28;20022;-70
2021/06/18 10:07:15;;;;;;;7.05;3.50;;;34.60;33.50;;;;;;5031462;28;20029;-70
2021/06/18 10:09:40;;;;;;;4.80;2.65;;;34.00;34.60;;;;;;5031374;28;20104;-69
2021/06/18 10:12:07;;;;;;;7.70;2.90;;;33.60;35.10;;;;;;5031454;28;20105;-70
2021/06/18 10:14:33;;;;;;;4.35;2.78;;;33.40;36.00;;;;;;5030020;28;20652;-69
2021/06/18 10:17:00;;;;;;;5.95;2.67;;;33.20;35.80;;;;;;5031247;28;20461;-70
2021/06/18 10:19:27;;;;;;;3.58;2.38;;;32.90;36.40;;;;;;5031158;28;20045;-70
2021/06/18 10:22:12;;;;;;;12.63;2.45;;;32.70;36.80;;;;;;5031239;28;20100;-70
2021/06/18 10:25:04;;;;;;;8.48;2.47;;;32.70;36.40;;;;;;5031251;28;20057;-69
2021/06/18 10:27:31;;;;;;;4.60;2.35;;;32.70;36.90;;;;;;5030569;28;20041;-70
2021/06/18 10:29:58;;;;;;;5.88;2.30;;;32.60;37.20;;;;;;5031017;28;20659;-68
2021/06/18 10:32:34;;;;;;;9.27;2.30;;;32.50;37.20;;;;;;5031043;28;20029;-68
2021/06/18 10:35:01;;;;;;;5.50;2.50;;;32.10;36.70;;;;;;5031029;28;20044;-70
2021/06/18 10:37:31;;;;;;;4.82;2.28;;;31.90;37.50;;;;;;5029214;28;20097;-70
2021/06/18 10:40:04;;;;;;;4.22;2.60;;;31.80;37.30;;;;;;5030932;28;20075;-68
2021/06/18 10:42:29;;;;;;;6.65;2.28;;;31.90;37.50;;;;;;5030752;28;20034;-68
2021/06/18 10:44:55;;;;;;;4.18;1.98;;;31.70;37.90;;;;;;5030591;28;20403;-69
2021/06/18 10:47:24;;;;;;;5.55;2.63;;;31.70;36.30;;;;;;5030550;28;20151;-70
2021/06/18 10:49:51;;;;;;;3.67;2.35;;;31.70;37.40;;;;;;5030466;28;20026;-69
2021/06/18 10:52:22;;;;;;;4.70;2.30;;;31.70;36.90;;;;;;5029041;28;20037;-69
2021/06/18 10:54:58;;;;;;;5.05;2.97;;;31.60;38.40;;;;;;5030560;28;20037;-69
2021/06/18 10:57:29;;;;;;;14.93;3.35;;;31.60;38.10;;;;;;5029010;28;20025;-69
2021/06/18 11:00:10;;;;;;;4.97;1.70;;;31.60;38.70;;;;;;5030659;28;20025;-69
2021/06/18 11:02:39;;;;;;;5.78;2.72;;;31.60;39.80;;;;;;5030565;28;20025;-70
2021/06/18 11:05:28;;;;;;;5.43;2.17;;;31.60;39.00;;;;;;5030379;28;20037;-69
2021/06/18 11:08:26;;;;;;;5.50;2.25;;;31.50;38.50;;;;;;5030123;28;20541;-69
2021/06/18 11:10:57;;;;;;;5.10;2.30;;;31.60;37.30;;;;;;5030353;28;20580;-68
2021/06/18 11:13:23;;;;;;;5.65;2.28;;;31.60;37.30;;;;;;5029994;28;20061;-69
2021/06/18 11:15:49;;;;;;;4.63;1.75;;;31.40;36.70;;;;;;5030096;28;20032;-70
2021/06/18 11:18:18;;;;;;;5.15;2.08;;;31.40;37.80;;;;;;5030224;28;20105;-70
2021/06/18 11:20:46;;;;;;;6.28;2.78;;;31.40;36.90;;;;;;5030010;28;20029;-70
2021/06/18 11:23:13;;;;;;;7.63;2.35;;;31.30;37.10;;;;;;5029989;28;20099;-70
2021/06/18 11:25:45;;;;;;;5.00;2.20;;;31.40;38.00;;;;;;5029766;28;20486;-70
2021/06/18 11:28:19;;;;;;;5.07;2.80;;;31.40;38.90;;;;;;5029920;28;20405;-68
2021/06/18 11:30:54;;;;;;;7.03;2.38;;;31.60;38.30;;;;;;5029767;28;20018;-69
2021/06/18 11:33:41;;;;;;;3.10;1.75;;;31.60;38.30;;;;;;5029605;28;20029;-70
2021/06/18 11:36:17;;;;;;;9.77;2.30;;;31.60;37.70;;;;;;5029588;28;20040;-70
2021/06/18 11:38:45;;;;;;;3.55;2.50;;;31.70;37.10;;;;;;5029687;28;20041;-70
2021/06/18 11:41:12;;;;;;;7.05;2.30;;;31.50;37.10;;;;;;5029216;28;20572;-70
2021/06/18 11:43:40;;;;;;;7.95;2.65;;;31.40;37.30;;;;;;5029398;28;20056;-70
2021/06/18 11:46:06;;;;;;;3.72;2.70;;;31.30;37.10;;;;;;5029534;28;20104;-71
2021/06/18 11:48:32;;;;;;;5.10;1.90;;;31.50;37.90;;;;;;5029547;28;20486;-71
2021/06/18 11:50:59;;;;;;;5.97;2.00;;;31.70;37.60;;;;;;5029491;28;20040;-69
2021/06/18 11:53:35;;;;;;;4.38;1.85;;;31.80;37.00;;;;;;5029439;28;20067;-69
2021/06/18 11:56:02;;;;;;;2.83;1.70;;;31.90;36.10;;;;;;5029336;28;20143;-70
2021/06/18 11:58:32;;;;;;;4.35;1.55;;;31.90;36.40;;;;;;5029371;28;20057;-69
2021/06/18 12:01:09;;;;;;;5.18;1.45;;;32.00;37.10;;;;;;5029553;28;20048;-70
2021/06/18 12:03:34;;;;;;;3.28;1.50;;;32.10;36.00;;;;;;5029215;28;20041;-69
2021/06/18 12:06:23;;;;;;;3.80;1.83;;;32.10;35.00;;;;;;5029255;28;20025;-69
2021/06/18 12:09:10;;;;;;;3.53;1.42;;;31.90;35.40;;;;;;5027899;28;20116;-70
2021/06/18 12:11:41;;;;;;;3.88;1.63;;;31.90;36.80;;;;;;5027983;28;20030;-70
2021/06/18 12:14:09;;;;;;;7.85;1.77;;;32.00;36.50;;;;;;5028921;28;20047;-70
2021/06/18 12:16:37;;;;;;;5.18;1.70;;;32.00;35.60;;;;;;5029001;28;20489;-69
2021/06/18 12:19:22;;;;;;;2.90;1.60;;;32.10;35.40;;;;;;5029081;28;20029;-69
2021/06/18 12:22:08;;;;;;;9.23;2.03;;;32.00;35.80;;;;;;5027619;28;20067;-70
2021/06/18 12:24:38;;;;;;;5.55;1.63;;;32.00;36.50;;;;;;5029021;28;20087;-69
2021/06/18 12:27:12;;;;;;;4.55;1.83;;;31.90;35.50;;;;;;5027962;28;20033;-70
2021/06/18 12:29:45;;;;;;;2.28;1.50;;;31.80;35.20;;;;;;5028762;28;20025;-69
2021/06/18 12:32:13;;;;;;;2.63;1.40;;;31.60;36.10;;;;;;5028743;28;20149;-70
2021/06/18 12:34:49;;;;;;;5.65;1.35;;;31.70;37.30;;;;;;5028754;28;20494;-70
2021/06/18 12:37:18;;;;;;;3.17;1.77;;;31.70;36.00;;;;;;5028545;28;20057;-70
2021/06/18 12:40:03;;;;;;;5.20;1.92;;;31.70;37.00;;;;;;5028714;28;20025;-69
2021/06/18 12:42:38;;;;;;;3.78;1.30;;;31.80;36.40;;;;;;5028653;28;20086;-69
2021/06/18 12:45:14;;;;;;;7.20;1.90;;;31.60;37.20;;;;;;5028666;28;20029;-70
2021/06/18 12:47:40;;;;;;;;;;;31.80;37.70;;;;;;5028885;28;20031;-70
2021/06/18 12:50:27;;;;;;;6.68;1.70;;;31.80;37.40;;;;;;5028476;28;19909;-70
2021/06/18 12:52:55;;;;;;;2.63;1.38;;;31.80;35.80;;;;;;5027835;28;20064;-70
2021/06/18 12:55:26;;;;;;;7.63;2.30;;;31.70;36.20;;;;;;5028403;28;20100;-70